KJAC/JAC METAR and TAF weather

Enter ICAO airport designator
Station Type Date Time Source
KJAC METAR 2019/02/22 22:56 UTC NOAA

KJAC 222256Z 12003KT 10SM CLR M07/M17 A2983 RMK AO2 SLP204 T10671172


Station Type Date Time Source
KJAC Decoded METAR 2019/02/22 22:56 UTC NOAA

Jackson, Jackson Hole Airport, WY, United States (KJAC) 43-36N 110-44W
Feb 22, 2019 - 05:56 PM EST / 2019.02.22 2256 UTC
Wind: from the ESE (120 degrees) at 3 MPH (3 KT):0
Visibility: 10 mile(s):0
Sky conditions: clear
Temperature: 19.9 F (-6.7 C)
Dew Point: 1.0 F (-17.2 C)
Relative Humidity: 42%
Pressure (altimeter): 29.83 in. Hg (1010 hPa)
ob: KJAC 222256Z 12003KT 10SM CLR M07/M17 A2983 RMK AO2 SLP204 T10671172
cycle: 23

Station Type Date Time Source
KJAC TAF 2019/02/22 18:36 UTC NOAA

TAF KJAC 221733Z 2218/2318 03011KT P6SM SKC
FM222000 19006KT P6SM SKC
FM230300 01007KT P6SM FEW080 BKN120
FM231400 01009KT P6SM VCSH OVC035
FM231600 20008KT 3SM -SN OVC025
AMD LTD TO CLD VIS AND WIND


Example: see airport list